Time;durP1;ratioP1;P1;durP2;ratioP2;P2;SDS_P1;SDS_P2;PMS_P1;PMS_P2;Temp;Humidity;BMP_temperature;BMP_pressure;BME280_temperature;BME280_humidity;BME280_pressure;Samples;Min_cycle;Max_cycle;Signal;HPM_P1;HPM_P2
2024/03/25 00:01:54;;;;;;;3.20;2.30;;;7.30;99.90;;;;;;4939504;29;20234;-83
2024/03/25 00:04:22;;;;;;;2.60;1.80;;;6.80;99.90;;;;;;4928759;29;20208;-83
2024/03/25 00:06:48;;;;;;;3.15;2.15;;;7.00;99.90;;;;;;4927833;29;20296;-83
2024/03/25 00:09:14;;;;;;;2.80;1.73;;;7.30;99.90;;;;;;4925357;29;20221;-83
2024/03/25 00:11:41;;;;;;;3.93;2.10;;;7.40;99.90;;;;;;4926605;29;20476;-83
2024/03/25 00:14:06;;;;;;;2.80;1.90;;;6.80;99.90;;;;;;4922728;29;20677;-85
2024/03/25 00:16:32;;;;;;;3.87;2.57;;;7.00;99.90;;;;;;4931434;29;20205;-84
2024/03/25 00:18:57;;;;;;;2.07;1.87;;;6.90;99.90;;;;;;4930634;29;20189;-84
2024/03/25 00:21:23;;;;;;;3.33;1.83;;;6.90;99.90;;;;;;4934012;29;20201;-85
2024/03/25 00:23:49;;;;;;;3.38;3.03;;;6.30;99.90;;;;;;4925119;29;20187;-85
2024/03/25 00:26:15;;;;;;;3.60;1.80;;;7.20;99.90;;;;;;4927713;29;20209;-85
2024/03/25 00:28:40;;;;;;;2.37;1.80;;;7.00;99.90;;;;;;4929579;29;20228;-85
2024/03/25 00:31:06;;;;;;;2.10;1.90;;;7.30;99.90;;;;;;4926881;29;20214;-83
2024/03/25 00:33:32;;;;;;;3.07;2.07;;;6.70;99.90;;;;;;4925415;29;20703;-83
2024/03/25 00:35:58;;;;;;;5.38;2.92;;;6.90;99.90;;;;;;4926227;29;20217;-83
2024/03/25 00:38:24;;;;;;;2.70;1.90;;;6.90;99.90;;;;;;4922834;29;20197;-82
2024/03/25 00:40:50;;;;;;;4.18;2.17;;;6.70;99.90;;;;;;4935458;29;20210;-83
2024/03/25 00:43:15;;;;;;;2.30;2.10;;;6.30;99.90;;;;;;4924880;29;20235;-83
2024/03/25 00:45:41;;;;;;;3.20;2.13;;;6.70;99.90;;;;;;4926962;29;20441;-85
2024/03/25 00:48:07;;;;;;;2.40;2.20;;;6.90;99.90;;;;;;4924810;29;20182;-85
2024/03/25 00:50:33;;;;;;;3.17;2.27;;;6.70;99.90;;;;;;4924310;29;20197;-84
2024/03/25 00:52:58;;;;;;;3.93;2.40;;;7.00;99.90;;;;;;4924673;29;20818;-85
2024/03/25 00:55:27;;;;;;;2.43;2.23;;;6.90;99.90;;;;;;4925671;29;20651;-85
2024/03/25 00:57:52;;;;;;;3.40;2.35;;;6.90;99.90;;;;;;4923009;29;20226;-84
2024/03/25 01:00:18;;;;;;;3.43;2.40;;;6.80;99.90;;;;;;4927312;29;20193;-85
2024/03/25 01:02:44;;;;;;;4.63;2.60;;;7.10;99.90;;;;;;4925084;29;20303;-86
2024/03/25 01:05:09;;;;;;;2.83;2.60;;;7.00;99.90;;;;;;4925407;29;20189;-84
2024/03/25 01:07:35;;;;;;;2.93;2.30;;;6.80;99.90;;;;;;4925543;29;20480;-84
2024/03/25 01:10:01;;;;;;;3.97;2.80;;;6.30;99.90;;;;;;4923951;29;20191;-84
2024/03/25 01:12:26;;;;;;;3.87;2.60;;;6.20;99.90;;;;;;4923574;29;20197;-86
2024/03/25 01:14:52;;;;;;;4.30;2.90;;;6.90;99.90;;;;;;4922233;29;20190;-84
2024/03/25 01:17:18;;;;;;;2.63;2.03;;;6.80;99.90;;;;;;4924179;29;20209;-84
2024/03/25 01:19:44;;;;;;;2.35;2.05;;;6.40;99.90;;;;;;4925626;29;20194;-85
2024/03/25 01:22:10;;;;;;;4.70;2.33;;;6.30;99.90;;;;;;4923423;29;20717;-85
2024/03/25 01:24:35;;;;;;;2.27;1.93;;;6.90;99.90;;;;;;4925915;29;20185;-85
2024/03/25 01:27:02;;;;;;;3.23;2.30;;;7.10;99.90;;;;;;4938142;29;20301;-85
2024/03/25 01:29:27;;;;;;;4.55;2.22;;;7.20;99.90;;;;;;4927679;29;20192;-85
2024/03/25 01:31:53;;;;;;;3.67;2.50;;;6.70;99.90;;;;;;4943059;29;20323;-84
2024/03/25 01:34:19;;;;;;;2.23;2.03;;;7.10;99.90;;;;;;4926379;29;20192;-85
2024/03/25 01:36:44;;;;;;;2.77;2.13;;;7.10;99.90;;;;;;4926370;29;20255;-85
2024/03/25 01:39:10;;;;;;;4.73;2.33;;;7.00;99.90;;;;;;4925849;29;20224;-85
2024/03/25 01:41:35;;;;;;;8.13;2.93;;;6.90;99.90;;;;;;4925466;29;20307;-84
2024/03/25 01:44:02;;;;;;;2.43;2.20;;;6.70;99.90;;;;;;4925226;29;20190;-85
2024/03/25 01:46:27;;;;;;;5.07;2.20;;;7.30;99.90;;;;;;4926904;29;20691;-85
2024/03/25 01:48:54;;;;;;;2.45;2.25;;;6.90;99.90;;;;;;4940674;29;20241;-85
2024/03/25 01:51:21;;;;;;;3.13;2.47;;;6.80;99.90;;;;;;4928137;29;20189;-84
2024/03/25 01:53:49;;;;;;;2.80;2.60;;;7.00;99.90;;;;;;4926328;29;20655;-85
2024/03/25 01:56:16;;;;;;;4.07;2.30;;;6.40;99.90;;;;;;4925340;29;20691;-85
2024/03/25 01:58:42;;;;;;;3.30;2.67;;;6.20;99.90;;;;;;4926255;29;20715;-85
2024/03/25 02:01:10;;;;;;;2.33;2.10;;;7.60;99.90;;;;;;4926015;29;20350;-85
2024/03/25 02:03:35;;;;;;;3.00;2.70;;;6.80;99.90;;;;;;4928353;29;20196;-84
2024/03/25 02:06:06;;;;;;;3.40;2.40;;;6.60;99.90;;;;;;4927261;29;20209;-84
2024/03/25 02:08:33;;;;;;;5.93;2.30;;;6.60;99.90;;;;;;4930979;29;20650;-84
2024/03/25 02:10:59;;;;;;;2.83;2.58;;;6.60;99.90;;;;;;4939998;29;20205;-85
2024/03/25 02:13:25;;;;;;;3.60;2.97;;;6.70;99.90;;;;;;4928742;29;20193;-85
2024/03/25 02:15:51;;;;;;;3.40;2.90;;;6.40;99.90;;;;;;4926852;29;20202;-85
2024/03/25 02:18:20;;;;;;;2.43;2.10;;;6.50;99.90;;;;;;4930285;29;20278;-85
2024/03/25 02:20:46;;;;;;;4.22;2.75;;;6.30;99.90;;;;;;4926688;29;20502;-84
2024/03/25 02:23:12;;;;;;;5.28;2.05;;;6.70;99.90;;;;;;4939268;29;20271;-85
2024/03/25 02:25:40;;;;;;;7.25;4.32;;;6.40;99.90;;;;;;4927506;29;20178;-84
2024/03/25 02:28:05;;;;;;;3.90;3.50;;;6.50;99.90;;;;;;4927955;29;20548;-85
2024/03/25 02:30:31;;;;;;;4.60;2.40;;;6.50;99.90;;;;;;4927253;29;20197;-85
2024/03/25 02:32:57;;;;;;;4.33;2.23;;;6.60;99.90;;;;;;4927905;29;20185;-84
2024/03/25 02:35:25;;;;;;;2.77;2.40;;;6.40;99.90;;;;;;4938614;29;20224;-85
2024/03/25 02:37:51;;;;;;;3.20;2.22;;;7.10;99.90;;;;;;4927343;29;20190;-85
2024/03/25 02:40:18;;;;;;;4.68;2.63;;;6.60;99.90;;;;;;4942519;29;20272;-84
2024/03/25 02:42:44;;;;;;;2.85;2.50;;;6.80;99.90;;;;;;4945254;29;21186;-84
2024/03/25 02:45:10;;;;;;;3.70;2.63;;;7.00;99.90;;;;;;4926249;29;20197;-84
2024/03/25 02:47:35;;;;;;;4.27;2.73;;;6.50;99.90;;;;;;4929618;29;20221;-85
2024/03/25 02:50:01;;;;;;;4.70;2.70;;;7.00;99.90;;;;;;4928261;29;20215;-84
2024/03/25 02:52:26;;;;;;;2.80;2.43;;;6.70;99.90;;;;;;4927704;29;20197;-84
2024/03/25 02:54:54;;;;;;;4.87;2.90;;;6.70;99.90;;;;;;4932397;29;20227;-84
2024/03/25 02:57:19;;;;;;;3.75;2.80;;;6.80;99.90;;;;;;4930194;29;20213;-84
2024/03/25 02:59:45;;;;;;;4.07;2.97;;;6.50;99.90;;;;;;4931819;29;20245;-85
2024/03/25 03:02:10;;;;;;;4.63;3.10;;;6.50;99.90;;;;;;4933191;29;20252;-84
2024/03/25 03:04:36;;;;;;;4.03;3.23;;;6.10;99.90;;;;;;4946522;29;20548;-84
2024/03/25 03:07:01;;;;;;;4.27;3.10;;;7.10;99.90;;;;;;4941472;29;20253;-84
2024/03/25 03:09:27;;;;;;;4.60;2.50;;;6.60;99.90;;;;;;4927092;29;20208;-84
2024/03/25 03:11:52;;;;;;;6.77;3.77;;;6.50;99.90;;;;;;4924565;29;20232;-85
2024/03/25 03:14:18;;;;;;;3.53;2.70;;;7.50;99.90;;;;;;4923220;29;20193;-85
2024/03/25 03:16:43;;;;;;;3.37;2.80;;;6.70;99.90;;;;;;4929843;29;20572;-84
2024/03/25 03:19:09;;;;;;;5.90;2.40;;;6.30;99.90;;;;;;4925632;29;20609;-84
2024/03/25 03:21:36;;;;;;;3.08;2.78;;;7.20;99.90;;;;;;4926308;29;20206;-84
2024/03/25 03:24:02;;;;;;;3.53;2.53;;;6.90;99.90;;;;;;4921996;29;20574;-84
2024/03/25 03:26:27;;;;;;;4.00;2.90;;;6.70;99.90;;;;;;4922578;29;20209;-84
2024/03/25 03:28:54;;;;;;;6.40;3.60;;;7.10;99.90;;;;;;4926038;29;20192;-84
2024/03/25 03:31:21;;;;;;;4.32;2.75;;;6.90;99.90;;;;;;4945108;29;20185;-84
2024/03/25 03:33:47;;;;;;;3.22;2.92;;;6.60;99.90;;;;;;4924150;29;20198;-84
2024/03/25 03:36:14;;;;;;;4.93;3.38;;;6.20;99.90;;;;;;4926641;29;20674;-85
2024/03/25 03:38:39;;;;;;;4.38;3.00;;;7.10;99.90;;;;;;4925260;29;20240;-84
2024/03/25 03:41:06;;;;;;;6.30;3.67;;;6.50;99.90;;;;;;4936887;29;20209;-85
2024/03/25 03:43:32;;;;;;;4.43;2.47;;;6.90;99.90;;;;;;4928966;29;20173;-85
2024/03/25 03:45:57;;;;;;;5.67;3.00;;;6.30;99.90;;;;;;4922852;29;20229;-85
2024/03/25 03:48:23;;;;;;;3.40;3.10;;;6.60;99.90;;;;;;4922988;29;20225;-85
2024/03/25 03:50:48;;;;;;;3.33;2.70;;;6.50;99.90;;;;;;4925179;29;20192;-85
2024/03/25 03:53:14;;;;;;;5.50;2.80;;;5.90;99.90;;;;;;4924421;29;20194;-85
2024/03/25 03:55:39;;;;;;;4.13;3.50;;;6.20;99.90;;;;;;4922960;29;20201;-85
2024/03/25 03:58:05;;;;;;;6.30;3.13;;;6.40;99.90;;;;;;4940580;29;20228;-85
2024/03/25 04:00:34;;;;;;;4.13;3.03;;;6.60;99.90;;;;;;4920231;29;20205;-85
2024/03/25 04:03:00;;;;;;;2.83;2.60;;;6.30;99.90;;;;;;4938197;29;20194;-83
2024/03/25 04:05:29;;;;;;;5.60;3.53;;;6.30;99.90;;;;;;4923987;29;20273;-84
2024/03/25 04:07:55;;;;;;;4.90;3.58;;;5.80;99.90;;;;;;4945657;29;20521;-84
2024/03/25 04:10:20;;;;;;;4.93;3.10;;;6.20;99.90;;;;;;4942758;29;20694;-85
2024/03/25 04:12:46;;;;;;;3.43;3.10;;;6.20;99.90;;;;;;4929979;29;20298;-83
2024/03/25 04:15:17;;;;;;;2.60;2.40;;;5.60;99.90;;;;;;4926855;29;20185;-84
2024/03/25 04:17:46;;;;;;;3.67;3.20;;;6.30;99.90;;;;;;4931780;29;20221;-84
2024/03/25 04:20:12;;;;;;;5.75;3.00;;;6.20;99.90;;;;;;4925373;29;20204;-84
2024/03/25 04:22:45;;;;;;;5.70;3.50;;;6.00;99.90;;;;;;4944987;29;20220;-85
2024/03/25 04:25:12;;;;;;;4.45;3.38;;;6.00;99.90;;;;;;4927493;29;20193;-84
2024/03/25 04:27:46;;;;;;;4.40;3.58;;;6.20;99.90;;;;;;4929512;29;20201;-84
2024/03/25 04:30:12;;;;;;;5.55;3.60;;;6.10;99.90;;;;;;4924193;29;20196;-84
2024/03/25 04:32:39;;;;;;;5.80;3.30;;;6.30;99.90;;;;;;4930128;29;20189;-85
2024/03/25 04:35:06;;;;;;;4.15;3.42;;;5.70;99.90;;;;;;4927205;29;20224;-84
2024/03/25 04:37:32;;;;;;;6.38;3.30;;;6.00;99.90;;;;;;4927344;29;20320;-84
2024/03/25 04:39:57;;;;;;;4.50;2.55;;;6.10;99.90;;;;;;4925141;29;20216;-84
2024/03/25 04:42:26;;;;;;;4.90;3.27;;;5.70;99.90;;;;;;4926894;29;20235;-84
2024/03/25 04:44:53;;;;;;;4.38;3.97;;;6.20;99.90;;;;;;4922955;29;20189;-84
2024/03/25 04:47:19;;;;;;;3.90;3.22;;;5.70;99.90;;;;;;4929858;29;20268;-84
2024/03/25 04:49:45;;;;;;;4.43;3.10;;;6.20;99.90;;;;;;4924420;29;20217;-84
2024/03/25 04:52:16;;;;;;;6.55;3.40;;;6.20;99.90;;;;;;4927319;29;20192;-85
2024/03/25 04:54:43;;;;;;;3.60;3.30;;;6.30;99.90;;;;;;4923573;29;20193;-85
2024/03/25 04:57:08;;;;;;;3.55;3.25;;;6.00;99.90;;;;;;4923269;29;20638;-84
2024/03/25 04:59:34;;;;;;;6.20;3.00;;;6.20;99.90;;;;;;4922455;29;20196;-85
2024/03/25 05:02:00;;;;;;;7.03;3.47;;;6.60;99.90;;;;;;4929097;29;20243;-84
2024/03/25 05:04:25;;;;;;;3.70;2.90;;;6.30;99.90;;;;;;4925211;29;20197;-85
2024/03/25 05:06:51;;;;;;;4.33;3.40;;;6.30;99.90;;;;;;4921390;29;20205;-83
2024/03/25 05:09:17;;;;;;;3.50;3.00;;;6.30;99.90;;;;;;4929278;29;20567;-83
2024/03/25 05:11:43;;;;;;;5.13;3.10;;;6.50;99.90;;;;;;4926406;29;20457;-83
2024/03/25 05:14:08;;;;;;;3.17;2.88;;;6.50;99.90;;;;;;4918752;29;20197;-86
2024/03/25 05:16:34;;;;;;;3.70;3.30;;;6.70;99.90;;;;;;4920456;29;20228;-87
2024/03/25 05:18:59;;;;;;;3.97;3.17;;;6.40;99.90;;;;;;4920657;29;20196;-87
2024/03/25 05:21:25;;;;;;;3.57;2.83;;;6.70;99.90;;;;;;4922289;29;20213;-88
2024/03/25 05:23:50;;;;;;;3.90;3.60;;;6.10;99.90;;;;;;4926802;29;20178;-85
2024/03/25 05:26:16;;;;;;;3.43;2.87;;;6.40;99.90;;;;;;4923695;29;20588;-84
2024/03/25 05:28:43;;;;;;;3.80;3.00;;;6.80;99.90;;;;;;4927566;29;20189;-85
2024/03/25 05:31:09;;;;;;;4.85;3.05;;;6.40;99.90;;;;;;4924502;29;20197;-84
2024/03/25 05:33:35;;;;;;;6.38;3.38;;;6.40;99.90;;;;;;4923609;29;20650;-83
2024/03/25 05:36:01;;;;;;;4.00;3.05;;;5.90;99.90;;;;;;4930060;29;20220;-83
2024/03/25 05:38:27;;;;;;;5.10;2.70;;;6.50;99.90;;;;;;4922643;29;20249;-85
2024/03/25 05:40:53;;;;;;;3.58;3.28;;;7.00;99.90;;;;;;4940307;29;20552;-85
2024/03/25 05:43:20;;;;;;;6.57;4.13;;;6.40;99.90;;;;;;4927005;29;20206;-86
2024/03/25 05:45:55;;;;;;;3.25;2.95;;;6.60;99.90;;;;;;4925995;29;20201;-85
2024/03/25 05:48:22;;;;;;;3.03;2.72;;;6.40;99.90;;;;;;4926739;29;20685;-83
2024/03/25 05:51:00;;;;;;;3.42;2.60;;;6.50;99.90;;;;;;4926616;29;20217;-82
2024/03/25 05:53:29;;;;;;;6.18;3.28;;;6.50;99.90;;;;;;4927749;29;20224;-84
2024/03/25 05:55:55;;;;;;;4.00;3.50;;;6.40;99.90;;;;;;4923886;29;20225;-83
2024/03/25 05:58:21;;;;;;;5.07;3.72;;;7.00;99.90;;;;;;4942092;29;20277;-84
2024/03/25 06:00:51;;;;;;;3.50;3.20;;;6.40;99.90;;;;;;4924730;29;20278;-84
2024/03/25 06:03:19;;;;;;;4.05;3.10;;;6.70;99.90;;;;;;4910365;29;20814;-86
2024/03/25 06:05:45;;;;;;;4.43;3.22;;;6.20;99.90;;;;;;4926130;29;20282;-88
2024/03/25 06:08:20;;;;;;;3.83;3.33;;;6.50;99.90;;;;;;4933780;29;20213;-89
2024/03/25 06:10:45;;;;;;;4.85;3.50;;;6.60;99.90;;;;;;4919646;29;20536;-88
2024/03/25 06:13:11;;;;;;;5.00;3.50;;;6.70;99.90;;;;;;4932985;29;20277;-89
2024/03/25 06:15:37;;;;;;;5.60;3.33;;;6.50;99.90;;;;;;4912629;29;20198;-88
2024/03/25 06:18:02;;;;;;;3.63;2.80;;;6.50;99.90;;;;;;4923730;29;20189;-87
2024/03/25 06:20:28;;;;;;;4.80;3.60;;;6.70;99.90;;;;;;4925599;29;20197;-86
2024/03/25 06:22:53;;;;;;;4.60;3.27;;;6.20;99.90;;;;;;4924657;29;20193;-88
2024/03/25 06:25:19;;;;;;;5.43;3.80;;;6.90;99.90;;;;;;4919833;29;20193;-87
2024/03/25 06:27:44;;;;;;;3.23;2.77;;;7.00;99.90;;;;;;4920545;29;20206;-87
2024/03/25 06:35:43;;;;;;;3.38;2.80;;;7.10;99.90;;;;;;4943157;29;20201;-86
2024/03/25 06:38:08;;;;;;;5.80;3.25;;;7.40;99.90;;;;;;4923898;29;20193;-84
2024/03/25 06:40:34;;;;;;;5.20;3.00;;;7.10;99.90;;;;;;4930141;29;20209;-85
2024/03/25 06:42:59;;;;;;;4.10;2.90;;;7.40;99.90;;;;;;4925895;29;20675;-85
2024/03/25 06:45:25;;;;;;;5.43;3.20;;;7.60;99.90;;;;;;4928155;29;20193;-85
2024/03/25 06:47:50;;;;;;;3.97;3.30;;;7.20;99.90;;;;;;4923952;29;20221;-86
2024/03/25 06:50:16;;;;;;;4.97;3.07;;;7.70;99.90;;;;;;4925224;29;20182;-85
2024/03/25 06:52:42;;;;;;;5.73;4.50;;;7.80;99.90;;;;;;4926440;29;20189;-84
2024/03/25 06:55:08;;;;;;;5.67;3.90;;;7.50;99.90;;;;;;4925390;29;20194;-85
2024/03/25 06:57:33;;;;;;;3.70;3.22;;;7.80;99.90;;;;;;4927656;29;20477;-85
2024/03/25 06:59:59;;;;;;;7.20;3.50;;;7.30;99.90;;;;;;4920399;29;20549;-84
2024/03/25 07:02:24;;;;;;;7.33;3.57;;;8.00;99.90;;;;;;4927983;29;20210;-85
2024/03/25 07:04:50;;;;;;;4.77;2.80;;;8.20;99.90;;;;;;4927214;29;20209;-85
2024/03/25 07:07:15;;;;;;;4.03;2.87;;;9.10;99.90;;;;;;4922263;29;20261;-85
2024/03/25 07:09:41;;;;;;;4.93;3.37;;;9.70;99.90;;;;;;4926573;29;20582;-84
2024/03/25 07:12:07;;;;;;;5.40;3.03;;;10.90;99.90;;;;;;4926632;29;20221;-86
2024/03/25 07:14:33;;;;;;;5.32;3.17;;;10.70;98.30;;;;;;4924499;29;20215;-87
2024/03/25 07:16:58;;;;;;;7.50;3.47;;;10.50;98.00;;;;;;4933647;29;20216;-85
2024/03/25 07:19:24;;;;;;;3.03;2.73;;;11.20;98.50;;;;;;4932214;29;20448;-86
2024/03/25 07:21:49;;;;;;;3.47;3.00;;;11.20;97.00;;;;;;4929122;29;20205;-84
2024/03/25 07:24:15;;;;;;;4.73;3.13;;;12.50;96.40;;;;;;4924470;29;20185;-84
2024/03/25 07:26:40;;;;;;;3.60;2.90;;;14.40;94.00;;;;;;4926536;29;20205;-84
2024/03/25 07:29:06;;;;;;;5.37;3.37;;;14.50;90.20;;;;;;4923378;29;20185;-85
2024/03/25 07:31:32;;;;;;;5.43;3.03;;;15.70;85.60;;;;;;4924165;29;20196;-85
2024/03/25 07:33:57;;;;;;;3.00;2.70;;;17.40;80.20;;;;;;4920616;29;20213;-85
2024/03/25 07:36:23;;;;;;;3.77;3.40;;;17.80;76.30;;;;;;4921759;29;20209;-85
2024/03/25 07:38:48;;;;;;;3.03;2.70;;;17.80;74.00;;;;;;4919986;29;20186;-85
2024/03/25 07:41:14;;;;;;;5.80;3.33;;;18.70;72.40;;;;;;4935922;29;20340;-85
2024/03/25 07:43:39;;;;;;;5.03;3.30;;;19.00;69.70;;;;;;4925328;29;20193;-85
2024/03/25 07:46:04;;;;;;;2.67;2.37;;;19.20;70.40;;;;;;4922795;29;20717;-84
2024/03/25 07:48:30;;;;;;;6.00;3.20;;;19.90;69.10;;;;;;4925096;29;20240;-84
2024/03/25 07:50:56;;;;;;;4.30;2.70;;;19.70;64.90;;;;;;4927191;29;20197;-84
2024/03/25 07:53:21;;;;;;;3.73;3.30;;;20.90;63.90;;;;;;4928163;29;20518;-83
2024/03/25 07:55:46;;;;;;;3.13;2.83;;;20.40;61.40;;;;;;4928332;29;20233;-84
2024/03/25 07:58:12;;;;;;;2.50;2.30;;;20.00;62.70;;;;;;4924480;29;20197;-85
2024/03/25 08:00:38;;;;;;;3.97;2.80;;;20.90;59.20;;;;;;4923188;29;20185;-85
2024/03/25 08:03:03;;;;;;;3.93;2.87;;;20.50;58.10;;;;;;4924423;29;20197;-84
2024/03/25 08:05:30;;;;;;;3.53;2.80;;;21.10;58.20;;;;;;4921817;29;20188;-84
2024/03/25 08:07:55;;;;;;;2.77;2.57;;;22.90;55.90;;;;;;4939814;29;20525;-84
2024/03/25 08:10:21;;;;;;;3.60;2.67;;;22.80;53.90;;;;;;4924516;29;20451;-84
2024/03/25 08:12:46;;;;;;;3.70;2.57;;;22.80;52.70;;;;;;4923155;29;20201;-83
2024/03/25 08:15:13;;;;;;;4.23;2.50;;;21.60;54.00;;;;;;4926794;29;20213;-84
2024/03/25 08:17:39;;;;;;;3.65;2.60;;;21.10;54.60;;;;;;4923880;29;20213;-83
2024/03/25 08:20:05;;;;;;;2.57;2.23;;;19.00;54.50;;;;;;4924002;29;20244;-83
2024/03/25 08:22:30;;;;;;;2.92;2.60;;;16.90;57.10;;;;;;4923966;29;20224;-84
2024/03/25 08:24:56;;;;;;;3.00;2.27;;;16.20;59.90;;;;;;4924583;29;20566;-84
2024/03/25 08:27:21;;;;;;;2.37;1.83;;;15.40;62.30;;;;;;4925289;29;20197;-85
2024/03/25 08:29:48;;;;;;;3.70;2.33;;;14.30;66.10;;;;;;4922488;29;20558;-85
2024/03/25 08:32:14;;;;;;;3.35;1.67;;;14.90;65.50;;;;;;4941393;29;20655;-84
2024/03/25 08:34:40;;;;;;;4.50;1.70;;;15.80;63.80;;;;;;4924072;29;20201;-83
2024/03/25 08:37:05;;;;;;;1.93;1.50;;;17.20;59.70;;;;;;4942797;29;20217;-84
2024/03/25 08:39:31;;;;;;;2.87;1.90;;;19.50;56.10;;;;;;4923243;29;20658;-84
2024/03/25 08:41:56;;;;;;;3.03;2.20;;;20.30;53.90;;;;;;4921358;29;20225;-84
2024/03/25 08:44:22;;;;;;;4.83;2.70;;;19.40;54.40;;;;;;4924379;29;20209;-85
2024/03/25 08:46:47;;;;;;;3.80;2.40;;;18.40;54.70;;;;;;4923901;29;20206;-83
2024/03/25 08:49:13;;;;;;;3.63;2.93;;;17.00;57.00;;;;;;4926070;29;20181;-85
2024/03/25 08:51:38;;;;;;;2.70;2.10;;;16.60;59.80;;;;;;4924400;29;20202;-83
2024/03/25 08:54:04;;;;;;;2.03;1.50;;;16.50;58.70;;;;;;4920915;29;20194;-83
2024/03/25 08:56:29;;;;;;;2.13;1.47;;;17.40;56.40;;;;;;4924784;29;20434;-83
2024/03/25 08:58:55;;;;;;;3.40;1.50;;;17.00;54.50;;;;;;4925268;29;20244;-84
2024/03/25 09:01:24;;;;;;;2.53;1.40;;;17.70;54.90;;;;;;4923777;29;20206;-85
2024/03/25 09:03:49;;;;;;;2.05;1.45;;;17.90;52.80;;;;;;4926758;29;20193;-84
2024/03/25 09:06:16;;;;;;;1.63;1.30;;;16.60;51.80;;;;;;4925484;29;20261;-83
2024/03/25 09:11:26;;;;;;;2.58;1.50;;;16.80;53.80;;;;;;4942015;29;20207;-83
2024/03/25 09:13:52;;;;;;;4.55;2.05;;;16.20;54.90;;;;;;4921176;29;20194;-85
2024/03/25 09:16:18;;;;;;;5.15;1.92;;;17.60;55.40;;;;;;4924859;29;20224;-83
2024/03/25 09:18:44;;;;;;;2.23;1.53;;;18.10;53.60;;;;;;4925081;29;20197;-85
2024/03/25 09:21:09;;;;;;;2.60;1.43;;;18.00;53.50;;;;;;4926597;29;20223;-84
2024/03/25 09:23:35;;;;;;;2.90;1.90;;;;;;;;;;4925547;29;20181;-86
2024/03/25 09:26:01;;;;;;;2.30;2.00;;;16.90;54.50;;;;;;4939949;29;20289;-84
2024/03/25 09:28:26;;;;;;;2.80;1.50;;;16.30;54.20;;;;;;4923032;29;20185;-85
2024/03/25 09:30:52;;;;;;;2.97;1.40;;;16.60;54.00;;;;;;4924765;29;20190;-83
2024/03/25 09:33:17;;;;;;;1.80;1.50;;;16.40;53.00;;;;;;4923621;29;20669;-84
2024/03/25 09:35:43;;;;;;;3.43;1.40;;;17.90;51.10;;;;;;4923621;29;20193;-85
2024/03/25 09:38:09;;;;;;;2.70;1.80;;;18.20;51.60;;;;;;4924499;29;20220;-83
2024/03/25 09:40:41;;;;;;;2.40;1.38;;;17.60;51.20;;;;;;4921794;29;20217;-84
2024/03/25 09:43:20;;;;;;;1.90;1.52;;;17.80;50.60;;;;;;4926373;29;20181;-83
2024/03/25 09:45:48;;;;;;;2.85;1.77;;;18.20;49.90;;;;;;4923713;29;20205;-85
2024/03/25 09:48:15;;;;;;;2.78;1.70;;;19.40;50.00;;;;;;4924163;29;20228;-84
2024/03/25 09:50:42;;;;;;;2.20;1.50;;;20.00;49.90;;;;;;4925071;29;20726;-84
2024/03/25 09:53:07;;;;;;;2.13;1.67;;;19.50;49.30;;;;;;4925697;29;20316;-84
2024/03/25 09:55:33;;;;;;;2.13;1.63;;;19.70;49.30;;;;;;4927454;29;20656;-84
2024/03/25 09:57:59;;;;;;;2.10;1.90;;;19.20;49.90;;;;;;4930118;29;20189;-85
2024/03/25 10:00:24;;;;;;;3.23;1.80;;;18.30;51.30;;;;;;4926928;29;20193;-84
2024/03/25 10:02:50;;;;;;;2.70;1.90;;;17.50;52.20;;;;;;4926821;29;20500;-84
2024/03/25 10:05:18;;;;;;;2.60;1.70;;;15.80;53.50;;;;;;4926405;29;20189;-85
2024/03/25 10:07:44;;;;;;;3.55;1.95;;;15.20;55.00;;;;;;4927907;29;20217;-83
2024/03/25 10:10:09;;;;;;;3.53;2.00;;;14.90;55.50;;;;;;4945324;29;20260;-85
2024/03/25 10:12:38;;;;;;;3.67;2.10;;;14.10;56.30;;;;;;4928876;29;20212;-85
2024/03/25 10:15:05;;;;;;;4.05;1.75;;;14.30;57.60;;;;;;4926429;29;20201;-85
2024/03/25 10:17:31;;;;;;;2.25;1.67;;;14.00;57.10;;;;;;4928881;29;20224;-86
2024/03/25 10:19:57;;;;;;;4.15;1.63;;;13.70;58.00;;;;;;4926378;29;20320;-86
2024/03/25 10:22:22;;;;;;;4.10;2.00;;;13.60;59.20;;;;;;4946943;29;20639;-84
2024/03/25 10:24:48;;;;;;;2.60;1.70;;;13.50;59.60;;;;;;4929310;29;20241;-85
2024/03/25 10:27:23;;;;;;;2.00;1.73;;;13.50;59.20;;;;;;4925436;29;20928;-84
2024/03/25 10:29:53;;;;;;;4.20;2.10;;;12.80;59.30;;;;;;4926312;29;20280;-84
2024/03/25 10:32:19;;;;;;;3.15;2.17;;;12.90;59.50;;;;;;4943764;29;20293;-85
2024/03/25 10:34:44;;;;;;;3.55;2.15;;;13.00;61.20;;;;;;4930757;29;20200;-84
2024/03/25 10:37:11;;;;;;;4.23;2.20;;;12.70;61.90;;;;;;4926318;29;20218;-85
2024/03/25 10:40:00;;;;;;;3.47;2.40;;;13.00;63.40;;;;;;4920633;29;20189;-85
2024/03/25 10:42:26;;;;;;;2.97;1.85;;;12.70;61.60;;;;;;4937078;29;20214;-84
2024/03/25 10:44:52;;;;;;;2.60;2.00;;;13.10;63.10;;;;;;4923809;29;20192;-85
2024/03/25 10:47:22;;;;;;;5.77;2.50;;;13.10;62.70;;;;;;4927396;29;20209;-85
2024/03/25 10:49:56;;;;;;;2.15;1.95;;;13.00;61.60;;;;;;4944739;29;20434;-84
2024/03/25 10:52:23;;;;;;;3.65;2.33;;;12.70;61.10;;;;;;4925926;29;20200;-84
2024/03/25 10:54:49;;;;;;;2.45;2.10;;;12.80;60.70;;;;;;4944739;29;20185;-84
2024/03/25 10:57:16;;;;;;;2.83;1.98;;;12.30;62.20;;;;;;4925215;29;20301;-84
2024/03/25 10:59:46;;;;;;;3.28;1.95;;;13.30;63.40;;;;;;4926250;29;20181;-84
2024/03/25 11:02:12;;;;;;;2.15;1.80;;;13.30;60.90;;;;;;4924629;29;20213;-84
2024/03/25 11:04:38;;;;;;;3.97;1.77;;;12.50;59.90;;;;;;4925619;29;20756;-85
2024/03/25 11:07:12;;;;;;;3.38;1.80;;;12.50;60.80;;;;;;4925440;29;20212;-85
2024/03/25 11:09:37;;;;;;;2.03;1.83;;;12.50;60.60;;;;;;4941039;29;20196;-84
2024/03/25 11:12:03;;;;;;;1.77;1.53;;;13.00;61.00;;;;;;4939616;29;20201;-85
2024/03/25 11:14:31;;;;;;;2.73;2.00;;;12.90;61.10;;;;;;4922988;29;20449;-85
2024/03/25 11:16:57;;;;;;;2.60;2.20;;;12.70;60.70;;;;;;4931087;29;20299;-85
2024/03/25 11:19:26;;;;;;;1.90;1.77;;;11.90;61.00;;;;;;4931423;29;20577;-85
2024/03/25 11:21:52;;;;;;;2.25;1.40;;;12.30;61.70;;;;;;4944190;29;20476;-84
2024/03/25 11:24:30;;;;;;;3.42;1.98;;;12.30;65.80;;;;;;4926318;29;20289;-83
2024/03/25 11:26:56;;;;;;;3.42;1.98;;;13.20;67.90;;;;;;4929728;29;20213;-83
2024/03/25 11:29:22;;;;;;;4.30;2.00;;;14.20;63.70;;;;;;4928907;29;20667;-83
2024/03/25 11:31:49;;;;;;;3.13;1.97;;;14.50;60.70;;;;;;4927861;29;20189;-82
2024/03/25 11:34:15;;;;;;;4.35;1.90;;;15.50;58.80;;;;;;4927772;29;20544;-83
2024/03/25 11:36:41;;;;;;;2.40;2.20;;;16.10;57.80;;;;;;4924799;29;20291;-83
2024/03/25 11:39:09;;;;;;;3.10;2.73;;;15.60;57.00;;;;;;4929739;29;20201;-84
2024/03/25 11:41:43;;;;;;;4.13;2.60;;;15.40;57.40;;;;;;4941890;29;20309;-83
2024/03/25 11:44:09;;;;;;;3.95;2.33;;;15.10;57.80;;;;;;4924460;29;20352;-83
2024/03/25 11:46:37;;;;;;;2.20;2.00;;;14.60;57.50;;;;;;4926590;29;20228;-83
2024/03/25 11:49:08;;;;;;;2.20;1.75;;;14.60;57.70;;;;;;4924362;29;20651;-82
2024/03/25 11:51:34;;;;;;;2.40;2.20;;;14.80;57.80;;;;;;4924509;29;20199;-83
2024/03/25 11:54:02;;;;;;;2.13;1.90;;;14.40;58.30;;;;;;4926194;29;20194;-83
2024/03/25 11:56:28;;;;;;;2.25;2.05;;;13.80;58.60;;;;;;4940016;29;20616;-82
2024/03/25 11:58:53;;;;;;;3.30;2.50;;;14.40;58.40;;;;;;4921970;29;20209;-82
2024/03/25 12:01:19;;;;;;;2.93;2.33;;;15.20;58.60;;;;;;4925694;29;20293;-82
2024/03/25 12:03:44;;;;;;;3.57;2.30;;;15.90;57.30;;;;;;4924400;29;20667;-83
2024/03/25 12:06:10;;;;;;;3.17;2.30;;;15.70;54.90;;;;;;4941001;29;20659;-83
2024/03/25 12:08:44;;;;;;;3.03;2.60;;;15.20;55.10;;;;;;4925012;29;20182;-84
2024/03/25 12:11:19;;;;;;;5.10;2.40;;;14.40;55.20;;;;;;4938195;29;20628;-85
2024/03/25 12:13:45;;;;;;;3.75;1.98;;;14.30;56.10;;;;;;4926035;29;20197;-82
2024/03/25 12:16:11;;;;;;;3.93;2.63;;;14.50;57.70;;;;;;4937181;29;20224;-83
2024/03/25 12:18:40;;;;;;;4.00;2.50;;;14.50;57.00;;;;;;4922838;29;20189;-82
2024/03/25 12:21:06;;;;;;;2.67;1.98;;;13.60;57.10;;;;;;4924263;29;20224;-82
2024/03/25 12:23:33;;;;;;;4.37;1.90;;;13.30;58.10;;;;;;4923772;29;20575;-83
2024/03/25 12:26:03;;;;;;;3.00;1.90;;;13.50;59.10;;;;;;4928269;29;20217;-84
2024/03/25 12:28:28;;;;;;;2.90;2.05;;;13.10;59.10;;;;;;4922986;29;20182;-84
2024/03/25 12:30:55;;;;;;;3.13;2.13;;;13.40;60.30;;;;;;4926687;29;20277;-84
2024/03/25 12:33:25;;;;;;;2.50;2.30;;;13.60;60.30;;;;;;4927895;29;20181;-83
2024/03/25 12:35:52;;;;;;;3.35;2.00;;;13.10;59.10;;;;;;4920058;29;20205;-83
2024/03/25 12:38:30;;;;;;;4.03;2.95;;;13.40;60.70;;;;;;4941599;29;20178;-83
2024/03/25 12:41:04;;;;;;;3.10;2.80;;;13.20;61.50;;;;;;4927000;29;20189;-84
2024/03/25 12:43:32;;;;;;;2.97;2.50;;;12.80;61.90;;;;;;4926543;29;20252;-84
2024/03/25 12:45:58;;;;;;;3.10;2.30;;;12.90;63.40;;;;;;4920769;29;20233;-82
2024/03/25 12:48:25;;;;;;;3.00;2.22;;;12.80;61.90;;;;;;4925007;29;20189;-84
2024/03/25 12:50:51;;;;;;;2.42;1.80;;;13.30;59.90;;;;;;4925953;29;20213;-84
2024/03/25 12:53:18;;;;;;;3.97;2.20;;;13.20;57.90;;;;;;4923640;29;20185;-82
2024/03/25 12:55:44;;;;;;;2.42;2.15;;;12.90;55.80;;;;;;4925028;29;20449;-83
2024/03/25 12:58:10;;;;;;;1.63;1.52;;;13.10;56.10;;;;;;4925944;29;20186;-83